Time;durP1;ratioP1;P1;durP2;ratioP2;P2;SDS_P1;SDS_P2;PMS_P1;PMS_P2;Temp;Humidity;BMP_temperature;BMP_pressure;BME280_temperature;BME280_humidity;BME280_pressure;Samples;Min_cycle;Max_cycle;Signal;HPM_P1;HPM_P2
2023/08/15 00:01:12;;;;;;;2.17;0.90;;;23.20;79.70;;;;;;4998976;28;20459;-81
2023/08/15 00:03:38;;;;;;;2.00;0.82;;;23.10;79.80;;;;;;4999258;28;20029;-83
2023/08/15 00:06:03;;;;;;;3.40;0.93;;;23.10;79.10;;;;;;4990983;28;20026;-81
2023/08/15 00:08:29;;;;;;;3.43;1.03;;;23.00;79.20;;;;;;5005551;28;20276;-82
2023/08/15 00:10:55;;;;;;;2.17;0.93;;;23.00;79.40;;;;;;5006539;28;20478;-82
2023/08/15 00:13:21;;;;;;;4.13;0.90;;;22.90;79.50;;;;;;5003864;28;20029;-81
2023/08/15 00:15:47;;;;;;;2.70;0.85;;;22.90;79.60;;;;;;4984650;28;20041;-81
2023/08/15 00:18:12;;;;;;;1.77;0.90;;;22.80;79.70;;;;;;4990013;28;20022;-80
2023/08/15 00:20:38;;;;;;;2.72;1.00;;;22.70;79.90;;;;;;4986032;28;20116;-82
2023/08/15 00:23:04;;;;;;;2.23;1.00;;;22.60;80.00;;;;;;5003229;28;20032;-81
2023/08/15 00:25:30;;;;;;;3.38;1.13;;;22.60;80.20;;;;;;5019261;28;20077;-82
2023/08/15 00:27:56;;;;;;;2.28;0.95;;;22.60;80.40;;;;;;5009640;28;20013;-80
2023/08/15 00:30:22;;;;;;;3.77;1.10;;;22.50;80.50;;;;;;5014255;28;20034;-81
2023/08/15 00:32:47;;;;;;;3.38;0.98;;;22.50;80.60;;;;;;5004542;28;20042;-80
2023/08/15 00:35:13;;;;;;;2.20;0.90;;;22.40;80.70;;;;;;4998621;28;20026;-80
2023/08/15 00:37:39;;;;;;;1.83;0.80;;;22.30;80.90;;;;;;4989238;28;20026;-81
2023/08/15 00:40:06;;;;;;;2.43;0.80;;;22.40;81.20;;;;;;4996558;28;20064;-80
2023/08/15 00:42:31;;;;;;;3.38;1.00;;;22.40;81.40;;;;;;4997999;28;20112;-82
2023/08/15 00:44:57;;;;;;;1.98;1.00;;;22.30;81.50;;;;;;4983684;28;20052;-81
2023/08/15 00:47:23;;;;;;;1.83;0.90;;;22.30;81.70;;;;;;4998736;28;20668;-81
2023/08/15 00:49:51;;;;;;;2.90;1.10;;;22.30;81.80;;;;;;5008570;28;20390;-81
2023/08/15 00:52:17;;;;;;;2.13;1.00;;;22.30;81.90;;;;;;4998788;28;20045;-82
2023/08/15 00:54:46;;;;;;;3.60;1.00;;;22.20;81.90;;;;;;5005136;28;20045;-82
2023/08/15 00:57:13;;;;;;;1.67;1.00;;;22.20;82.30;;;;;;5003014;28;20417;-82
2023/08/15 00:59:43;;;;;;;2.60;0.90;;;22.20;82.20;;;;;;5013611;28;20113;-84
2023/08/15 01:02:09;;;;;;;2.17;0.90;;;22.20;82.40;;;;;;5008106;23;20112;-22
2023/08/15 01:04:37;;;;;;;2.97;1.00;;;22.20;82.30;;;;;;4973366;28;20034;-26
2023/08/15 01:07:03;;;;;;;1.65;0.90;;;22.20;82.40;;;;;;4979555;28;20041;-21
2023/08/15 01:09:29;;;;;;;1.33;0.87;;;22.20;82.40;;;;;;4982917;28;20030;-25
2023/08/15 01:12:32;;;;;;;2.10;0.90;;;22.10;82.40;;;;;;4983680;28;20164;-21
2023/08/15 01:15:00;;;;;;;1.58;1.05;;;22.10;83.20;;;;;;4967892;28;20113;-23
2023/08/15 01:17:36;;;;;;;3.05;0.90;;;22.10;82.50;;;;;;4994082;28;21215;-26
2023/08/15 01:20:07;;;;;;;1.42;0.85;;;22.10;83.10;;;;;;4974282;28;20270;-24
2023/08/15 01:22:36;;;;;;;1.47;0.90;;;22.00;82.80;;;;;;4977524;28;20036;-24
2023/08/15 01:25:02;;;;;;;2.05;1.00;;;22.00;83.10;;;;;;4977967;28;20637;-22
2023/08/15 01:27:28;;;;;;;3.53;1.30;;;21.90;82.90;;;;;;4982096;28;20018;-23
2023/08/15 01:29:54;;;;;;;2.22;0.80;;;21.90;83.00;;;;;;4967994;28;22106;-23
2023/08/15 01:32:23;;;;;;;2.37;0.93;;;21.90;83.10;;;;;;4985175;28;20045;-22
2023/08/15 01:35:00;;;;;;;2.28;1.10;;;21.80;83.50;;;;;;4989959;28;20239;-21
2023/08/15 01:37:30;;;;;;;2.28;0.93;;;21.60;84.60;;;;;;4978789;28;20018;-23
2023/08/15 01:39:57;;;;;;;2.28;1.13;;;21.80;83.70;;;;;;4980479;28;20053;-22
2023/08/15 01:42:24;;;;;;;1.83;1.00;;;21.70;83.60;;;;;;4984434;28;20153;-22
2023/08/15 01:44:52;;;;;;;3.03;1.00;;;21.70;83.80;;;;;;4989989;28;20021;-23
2023/08/15 01:47:19;;;;;;;2.63;1.10;;;21.70;84.10;;;;;;4963456;28;20058;-24
2023/08/15 01:49:45;;;;;;;2.20;1.08;;;21.70;84.30;;;;;;4983827;28;20029;-26
2023/08/15 01:52:11;;;;;;;3.80;1.30;;;21.70;84.50;;;;;;4987977;28;20033;-24
2023/08/15 01:54:37;;;;;;;3.63;1.50;;;21.70;84.80;;;;;;4942620;28;20120;-23
2023/08/15 01:57:02;;;;;;;2.78;1.20;;;21.70;84.90;;;;;;4987493;28;20319;-23
2023/08/15 01:59:28;;;;;;;3.47;1.10;;;21.70;85.10;;;;;;4982704;28;20030;-22
2023/08/15 02:01:54;;;;;;;3.15;1.10;;;21.70;85.10;;;;;;4953899;28;20834;-23
2023/08/15 02:04:20;;;;;;;3.43;1.30;;;21.70;85.40;;;;;;4986931;28;20793;-23
2023/08/15 02:06:45;;;;;;;3.88;1.10;;;21.70;85.50;;;;;;5009462;28;20021;-25
2023/08/15 02:09:11;;;;;;;3.47;1.20;;;21.70;85.60;;;;;;4997948;28;20524;-21
2023/08/15 02:11:37;;;;;;;2.88;1.00;;;21.70;85.60;;;;;;5009750;28;20293;-27
2023/08/15 02:14:02;;;;;;;2.83;1.30;;;21.80;85.80;;;;;;5009020;28;20033;-25
2023/08/15 02:16:28;;;;;;;2.28;0.95;;;21.70;85.80;;;;;;5014426;28;20025;-25
2023/08/15 02:18:54;;;;;;;3.35;1.10;;;21.80;85.90;;;;;;4957455;28;20170;-27
2023/08/15 02:21:20;;;;;;;2.97;1.20;;;21.80;85.90;;;;;;5017118;28;20501;-26
2023/08/15 02:23:46;;;;;;;2.63;1.13;;;21.80;85.90;;;;;;4999733;28;20018;-25
2023/08/15 02:26:12;;;;;;;2.17;1.17;;;21.80;85.90;;;;;;5007981;28;20032;-25
2023/08/15 02:28:37;;;;;;;4.55;1.30;;;21.80;86.00;;;;;;4976111;28;20169;-25
2023/08/15 02:31:05;;;;;;;3.70;1.10;;;21.70;86.00;;;;;;5016606;28;20556;-24
2023/08/15 02:33:33;;;;;;;3.83;1.40;;;21.70;86.00;;;;;;4970016;28;20040;-24
2023/08/15 02:36:07;;;;;;;2.75;1.20;;;21.70;86.30;;;;;;4989544;28;20366;-26
2023/08/15 02:38:34;;;;;;;4.07;1.40;;;21.70;86.40;;;;;;4982631;28;20282;-25
2023/08/15 02:41:00;;;;;;;2.03;1.23;;;21.60;86.10;;;;;;4998275;28;20049;-24
2023/08/15 02:43:26;;;;;;;2.07;1.00;;;21.70;86.20;;;;;;4986004;28;20160;-26
2023/08/15 02:45:51;;;;;;;3.28;1.15;;;21.60;86.30;;;;;;5014468;28;20025;-25
2023/08/15 02:48:17;;;;;;;3.10;1.20;;;21.60;86.30;;;;;;4996505;28;20116;-25
2023/08/15 02:50:43;;;;;;;2.75;1.10;;;21.50;86.40;;;;;;4987445;28;20778;-25
2023/08/15 02:53:09;;;;;;;3.50;1.10;;;21.50;86.60;;;;;;5011888;28;20032;-25
2023/08/15 02:55:35;;;;;;;3.23;1.10;;;21.50;86.80;;;;;;4999082;28;20302;-25
2023/08/15 02:58:01;;;;;;;3.92;1.30;;;21.50;86.90;;;;;;4991712;28;20030;-25
2023/08/15 03:00:27;;;;;;;2.75;1.30;;;21.50;87.10;;;;;;5004798;28;20056;-25
2023/08/15 03:02:53;;;;;;;3.37;1.20;;;21.40;87.10;;;;;;5017779;28;20069;-25
2023/08/15 03:05:19;;;;;;;3.22;1.20;;;21.50;87.30;;;;;;4959092;28;20076;-25
2023/08/15 03:07:45;;;;;;;3.08;1.20;;;21.40;87.30;;;;;;4991696;28;20341;-26
2023/08/15 03:10:10;;;;;;;3.23;1.23;;;21.50;87.40;;;;;;5013421;28;20107;-27
2023/08/15 03:12:36;;;;;;;3.25;1.30;;;21.50;87.50;;;;;;4973305;28;20394;-25
2023/08/15 03:15:02;;;;;;;2.60;1.10;;;21.50;87.50;;;;;;5009213;28;20041;-23
2023/08/15 03:17:28;;;;;;;3.22;1.02;;;21.40;87.40;;;;;;5011138;28;20359;-27
2023/08/15 03:19:54;;;;;;;2.67;1.27;;;21.40;87.40;;;;;;4998977;28;20030;-26
2023/08/15 03:22:20;;;;;;;3.33;1.07;;;21.40;87.30;;;;;;5006287;28;20283;-25
2023/08/15 03:24:46;;;;;;;3.30;1.30;;;21.30;87.30;;;;;;5002239;28;20235;-22
2023/08/15 03:27:12;;;;;;;3.33;1.30;;;21.30;87.30;;;;;;4997673;28;20037;-24
2023/08/15 03:29:37;;;;;;;4.33;1.00;;;21.30;87.20;;;;;;5005293;28;20375;-28
2023/08/15 03:32:03;;;;;;;2.38;1.10;;;21.20;87.20;;;;;;4987140;28;20067;-22
2023/08/15 03:34:29;;;;;;;2.47;1.10;;;21.20;87.20;;;;;;4975259;28;20033;-24
2023/08/15 03:36:56;;;;;;;2.50;1.13;;;21.10;86.50;;;;;;5008516;28;20080;-22
2023/08/15 03:39:22;;;;;;;1.52;1.00;;;21.10;87.20;;;;;;5007766;28;20474;-24
2023/08/15 03:41:47;;;;;;;2.23;1.00;;;21.00;87.20;;;;;;4992774;28;20240;-22
2023/08/15 03:44:13;;;;;;;2.53;1.00;;;21.00;87.20;;;;;;4994440;28;20029;-25
2023/08/15 03:46:40;;;;;;;2.70;1.10;;;20.90;87.20;;;;;;4988839;28;20807;-22
2023/08/15 03:49:07;;;;;;;2.07;1.10;;;20.80;87.30;;;;;;4998252;28;20106;-23
2023/08/15 03:51:33;;;;;;;2.72;1.10;;;20.80;87.30;;;;;;4970524;28;20227;-25
2023/08/15 03:53:58;;;;;;;2.72;1.00;;;20.70;87.30;;;;;;4959236;28;20056;-22
2023/08/15 03:56:24;;;;;;;1.87;1.07;;;20.70;87.50;;;;;;5013067;28;20037;-23
2023/08/15 03:58:50;;;;;;;2.03;1.20;;;20.60;87.50;;;;;;5003469;28;20024;-23
2023/08/15 04:01:15;;;;;;;1.60;1.00;;;20.50;87.60;;;;;;4986462;28;20104;-23
2023/08/15 04:03:41;;;;;;;3.90;1.30;;;20.50;87.80;;;;;;5009202;28;20161;-24
2023/08/15 04:06:07;;;;;;;3.17;1.10;;;20.40;87.90;;;;;;4977881;28;20076;-23
2023/08/15 04:08:33;;;;;;;1.63;1.13;;;20.40;88.10;;;;;;4981401;28;20620;-25
2023/08/15 04:11:00;;;;;;;2.47;1.30;;;20.30;88.10;;;;;;5014022;28;20059;-22
2023/08/15 04:13:26;;;;;;;2.15;1.20;;;20.30;88.20;;;;;;4969771;28;20036;-23
2023/08/15 04:15:51;;;;;;;1.95;1.10;;;20.20;88.30;;;;;;5005246;28;20486;-23
2023/08/15 04:18:17;;;;;;;2.97;1.10;;;20.20;88.30;;;;;;4969612;28;20113;-24
2023/08/15 04:20:43;;;;;;;2.38;1.15;;;20.10;88.40;;;;;;4997380;28;20236;-23
2023/08/15 04:23:09;;;;;;;1.80;1.05;;;20.10;88.40;;;;;;4994306;28;20092;-22
2023/08/15 04:25:37;;;;;;;1.50;1.17;;;20.10;88.50;;;;;;5003568;28;20029;-22
2023/08/15 04:28:03;;;;;;;2.90;1.20;;;20.10;88.60;;;;;;5003128;28;20374;-23
2023/08/15 04:30:30;;;;;;;2.15;1.15;;;20.10;88.60;;;;;;4999747;28;20025;-22
2023/08/15 04:32:58;;;;;;;2.00;0.95;;;20.00;88.60;;;;;;4977390;28;20029;-26
2023/08/15 04:35:24;;;;;;;2.38;1.00;;;20.00;88.60;;;;;;4982270;28;20414;-25
2023/08/15 04:37:50;;;;;;;2.10;0.93;;;19.90;88.70;;;;;;4992752;28;20167;-24
2023/08/15 04:40:31;;;;;;;2.45;1.10;;;19.90;88.70;;;;;;5005951;28;20056;-23
2023/08/15 04:42:57;;;;;;;1.40;1.00;;;19.90;89.20;;;;;;5013228;28;20026;-23
2023/08/15 04:45:22;;;;;;;3.73;1.00;;;19.90;88.90;;;;;;4983917;28;20032;-27
2023/08/15 04:47:48;;;;;;;2.25;1.02;;;19.90;89.00;;;;;;5005857;28;20037;-26
2023/08/15 04:50:14;;;;;;;2.20;1.00;;;19.80;89.10;;;;;;5007768;28;20021;-26
2023/08/15 04:52:39;;;;;;;2.40;1.00;;;19.80;89.10;;;;;;4963661;28;20485;-27
2023/08/15 04:55:06;;;;;;;2.03;1.05;;;19.80;89.40;;;;;;4987976;28;20289;-28
2023/08/15 04:57:32;;;;;;;1.77;1.00;;;19.70;89.50;;;;;;5013997;28;20022;-26
2023/08/15 04:59:57;;;;;;;1.90;1.20;;;19.70;89.50;;;;;;4977699;28;20198;-27
2023/08/15 05:02:23;;;;;;;2.20;1.10;;;19.70;89.70;;;;;;4988902;28;20154;-26
2023/08/15 05:04:49;;;;;;;2.25;1.10;;;19.70;89.80;;;;;;5004754;28;20111;-25
2023/08/15 05:07:14;;;;;;;2.58;1.00;;;19.70;90.00;;;;;;4954187;28;20144;-28
2023/08/15 05:09:40;;;;;;;1.60;1.07;;;19.70;90.10;;;;;;4996656;28;20397;-25
2023/08/15 05:12:06;;;;;;;2.95;1.00;;;19.60;90.10;;;;;;5007172;28;20682;-26
2023/08/15 05:14:32;;;;;;;1.90;1.00;;;19.60;90.20;;;;;;5011566;28;20913;-24
2023/08/15 05:16:58;;;;;;;2.53;1.15;;;19.60;90.20;;;;;;4978628;28;20033;-26
2023/08/15 05:19:24;;;;;;;2.20;1.07;;;19.60;90.30;;;;;;5007881;28;20021;-28
2023/08/15 05:21:50;;;;;;;3.03;1.02;;;19.70;90.40;;;;;;4999561;28;20024;-26
2023/08/15 05:24:15;;;;;;;1.45;1.08;;;19.70;90.50;;;;;;4972061;28;20035;-26
2023/08/15 05:26:41;;;;;;;3.57;1.30;;;19.70;90.50;;;;;;5002726;28;20066;-25
2023/08/15 05:29:07;;;;;;;2.60;1.05;;;19.70;90.60;;;;;;5011257;28;20385;-28
2023/08/15 05:31:33;;;;;;;2.93;1.30;;;19.80;90.70;;;;;;5009604;28;20386;-26
2023/08/15 05:33:59;;;;;;;2.10;1.08;;;19.80;90.70;;;;;;4974445;28;20271;-25
2023/08/15 05:36:24;;;;;;;2.40;1.00;;;19.80;90.80;;;;;;5001299;28;20025;-26
2023/08/15 05:38:50;;;;;;;3.03;1.20;;;19.80;90.80;;;;;;4978034;28;20710;-25
2023/08/15 05:41:16;;;;;;;2.67;1.13;;;19.80;90.90;;;;;;4988097;28;20029;-26
2023/08/15 05:43:42;;;;;;;2.10;1.13;;;19.80;90.90;;;;;;4985939;28;20152;-23
2023/08/15 05:46:07;;;;;;;3.70;1.40;;;19.90;91.00;;;;;;4990543;28;21245;-25
2023/08/15 05:48:33;;;;;;;3.53;1.20;;;19.90;91.00;;;;;;4994410;28;20156;-22
2023/08/15 05:50:59;;;;;;;2.17;1.10;;;19.90;91.00;;;;;;5004498;28;20105;-22
2023/08/15 05:53:25;;;;;;;3.87;0.90;;;20.00;91.10;;;;;;4982013;28;20640;-22
2023/08/15 05:55:51;;;;;;;3.00;1.10;;;20.00;91.10;;;;;;4961748;28;20041;-26
2023/08/15 05:58:17;;;;;;;1.40;1.00;;;20.00;91.20;;;;;;4978754;28;21405;-23
2023/08/15 06:00:43;;;;;;;1.50;0.93;;;20.10;91.30;;;;;;5012315;28;20199;-22
2023/08/15 06:03:08;;;;;;;3.63;1.10;;;20.10;92.40;;;;;;4989533;28;20461;-25
2023/08/15 06:05:34;;;;;;;2.10;1.00;;;20.10;91.40;;;;;;4995039;28;20446;-22
2023/08/15 06:08:00;;;;;;;1.75;0.98;;;20.10;91.40;;;;;;4986041;28;20042;-22
2023/08/15 06:10:25;;;;;;;1.87;1.10;;;20.20;91.50;;;;;;4958597;28;25756;-24
2023/08/15 06:12:51;;;;;;;2.50;1.00;;;20.20;91.50;;;;;;4987376;28;20033;-22
2023/08/15 06:15:17;;;;;;;2.43;1.10;;;20.30;91.60;;;;;;5010833;28;20038;-24
2023/08/15 06:17:43;;;;;;;1.20;0.90;;;20.30;91.70;;;;;;4992720;28;20589;-22
2023/08/15 06:20:10;;;;;;;1.38;1.02;;;20.40;91.80;;;;;;4979939;28;20597;-23
2023/08/15 06:22:36;;;;;;;2.15;1.02;;;20.40;91.80;;;;;;4972858;28;20705;-22
2023/08/15 06:25:02;;;;;;;2.20;1.00;;;20.50;91.90;;;;;;5014726;28;20045;-24
2023/08/15 06:27:28;;;;;;;1.50;0.90;;;20.50;92.70;;;;;;4986662;28;20307;-22
2023/08/15 06:29:53;;;;;;;1.60;0.93;;;20.60;92.00;;;;;;5004783;28;20250;-21
2023/08/15 06:32:30;;;;;;;2.57;0.90;;;20.70;92.10;;;;;;4990650;28;20083;-24
2023/08/15 06:34:56;;;;;;;1.77;0.90;;;20.80;92.40;;;;;;4989492;28;20115;-22
2023/08/15 06:37:23;;;;;;;1.77;1.00;;;20.90;92.30;;;;;;4994316;28;20503;-23
2023/08/15 06:39:49;;;;;;;2.22;0.95;;;20.90;92.30;;;;;;4986313;28;20025;-24
2023/08/15 06:42:14;;;;;;;1.90;1.10;;;21.00;92.30;;;;;;4974315;28;20032;-23
2023/08/15 06:44:43;;;;;;;3.10;1.30;;;21.10;92.30;;;;;;5003501;28;20867;-23
2023/08/15 06:47:10;;;;;;;2.08;1.00;;;21.20;92.40;;;;;;4991216;28;20446;-23
2023/08/15 06:49:36;;;;;;;1.38;1.00;;;21.30;92.40;;;;;;4992520;28;20275;-22
2023/08/15 06:52:03;;;;;;;2.40;1.10;;;21.30;92.40;;;;;;4960251;28;20597;-22
2023/08/15 06:54:29;;;;;;;2.38;1.25;;;21.40;92.40;;;;;;4979095;28;20036;-25
2023/08/15 06:56:54;;;;;;;1.50;1.05;;;21.50;92.50;;;;;;4994872;28;20026;-22
2023/08/15 06:59:23;;;;;;;1.90;0.90;;;21.60;92.60;;;;;;5002760;28;20640;-22
2023/08/15 07:01:50;;;;;;;1.35;0.85;;;21.10;92.90;;;;;;4986135;28;20398;-21
2023/08/15 07:04:16;;;;;;;2.75;1.00;;;21.80;92.70;;;;;;4991418;28;20022;-22
2023/08/15 07:06:41;;;;;;;1.50;1.00;;;21.90;92.80;;;;;;4998579;28;20048;-23
2023/08/15 07:09:07;;;;;;;3.40;1.00;;;22.00;92.90;;;;;;4960407;28;20503;-23
2023/08/15 07:11:33;;;;;;;1.98;0.82;;;22.10;92.90;;;;;;4978312;28;20036;-24
2023/08/15 07:13:59;;;;;;;1.13;0.80;;;22.20;92.90;;;;;;4995875;28;20076;-21
2023/08/15 07:16:24;;;;;;;4.32;1.20;;;22.30;92.80;;;;;;4974195;28;20097;-21
2023/08/15 07:18:50;;;;;;;1.73;1.00;;;22.40;92.70;;;;;;4974988;28;20076;-23
2023/08/15 07:21:16;;;;;;;1.50;0.95;;;22.50;92.70;;;;;;5016688;28;20052;-21
2023/08/15 07:23:42;;;;;;;1.90;1.00;;;22.60;92.70;;;;;;4970041;28;20033;-22
2023/08/15 07:26:07;;;;;;;2.57;1.00;;;22.60;92.70;;;;;;4991955;28;20025;-22
2023/08/15 07:28:33;;;;;;;1.95;1.10;;;22.70;92.80;;;;;;4965005;28;20469;-22
2023/08/15 07:30:59;;;;;;;2.37;1.17;;;22.80;92.80;;;;;;4971705;28;20116;-23
2023/08/15 07:33:25;;;;;;;1.67;1.08;;;22.90;92.80;;;;;;5015123;28;20311;-22
2023/08/15 07:35:51;;;;;;;2.10;1.02;;;23.00;92.70;;;;;;5008635;28;20063;-23
2023/08/15 07:38:17;;;;;;;2.03;0.90;;;23.00;92.70;;;;;;4983949;28;20664;-25
2023/08/15 07:40:42;;;;;;;1.83;1.00;;;23.10;92.60;;;;;;4965970;28;20103;-26
2023/08/15 07:43:08;;;;;;;2.43;1.10;;;23.20;92.60;;;;;;5061264;22;20061;-23
2023/08/15 07:45:34;;;;;;;1.73;1.00;;;23.30;92.60;;;;;;4990343;28;20859;-24
2023/08/15 07:48:00;;;;;;;1.60;1.00;;;23.30;92.50;;;;;;4957498;28;20211;-23
2023/08/15 07:50:28;;;;;;;1.97;1.00;;;23.40;92.50;;;;;;5002357;28;20025;-23
2023/08/15 07:52:58;;;;;;;2.05;1.00;;;23.50;92.50;;;;;;4993255;28;20041;-23
2023/08/15 07:55:23;;;;;;;3.35;1.20;;;23.50;92.60;;;;;;4983896;28;20044;-23
2023/08/15 07:57:49;;;;;;;1.40;1.05;;;23.60;92.90;;;;;;5007465;28;20041;-23
2023/08/15 08:00:15;;;;;;;1.83;0.97;;;23.70;93.10;;;;;;4965196;28;21100;-23
2023/08/15 08:02:43;;;;;;;3.08;1.10;;;23.90;93.00;;;;;;4998960;28;20033;-25
2023/08/15 08:05:11;;;;;;;1.75;0.98;;;24.00;92.90;;;;;;5003352;28;20018;-25
2023/08/15 08:07:40;;;;;;;3.03;1.10;;;24.40;93.10;;;;;;4997003;28;20104;-25
2023/08/15 08:10:07;;;;;;;2.00;1.00;;;24.20;92.80;;;;;;4976854;28;20104;-25
2023/08/15 08:12:33;;;;;;;2.60;0.90;;;24.40;92.90;;;;;;5008608;28;20111;-25
2023/08/15 08:14:59;;;;;;;2.20;0.95;;;24.50;93.10;;;;;;4979057;28;20029;-25
2023/08/15 08:17:26;;;;;;;1.73;0.82;;;24.70;93.30;;;;;;4989552;28;20037;-25
2023/08/15 08:19:52;;;;;;;1.92;1.08;;;24.90;93.60;;;;;;4994386;28;20037;-25
2023/08/15 08:22:18;;;;;;;2.38;1.10;;;25.10;93.80;;;;;;4997064;28;20383;-25
2023/08/15 08:24:44;;;;;;;2.73;1.03;;;25.40;93.90;;;;;;4987746;28;20233;-25
2023/08/15 08:27:10;;;;;;;2.30;0.95;;;25.60;93.90;;;;;;4989462;28;20235;-25
2023/08/15 08:29:36;;;;;;;2.20;1.10;;;25.90;94.10;;;;;;4979548;28;20042;-25
2023/08/15 08:32:02;;;;;;;2.40;0.93;;;26.20;94.40;;;;;;4983022;28;20103;-25
2023/08/15 08:34:28;;;;;;;3.53;1.00;;;26.60;94.90;;;;;;4985652;28;20040;-25
2023/08/15 08:36:54;;;;;;;2.30;1.10;;;27.00;95.10;;;;;;4973985;28;21218;-25
2023/08/15 08:39:19;;;;;;;1.63;0.87;;;27.50;95.10;;;;;;5002652;28;20026;-25
2023/08/15 08:41:45;;;;;;;1.43;0.90;;;27.90;94.80;;;;;;4992844;28;20064;-25
2023/08/15 08:44:12;;;;;;;2.43;1.20;;;28.30;94.30;;;;;;4954844;28;20427;-25
2023/08/15 08:46:39;;;;;;;2.70;1.27;;;28.60;93.30;;;;;;4951320;28;20041;-25
2023/08/15 08:49:08;;;;;;;2.47;1.20;;;28.90;93.10;;;;;;4950066;28;20050;-25
2023/08/15 08:51:34;;;;;;;3.30;1.27;;;29.20;93.20;;;;;;4972817;28;20038;-25
2023/08/15 08:54:00;;;;;;;2.50;1.20;;;29.40;93.50;;;;;;4979874;28;20030;-25
2023/08/15 08:56:29;;;;;;;2.22;1.10;;;29.80;93.20;;;;;;4961371;28;20033;-26
2023/08/15 08:59:15;;;;;;;2.33;1.42;;;30.10;92.70;;;;;;4958233;28;20072;-25
2023/08/15 09:01:42;;;;;;;1.70;1.40;;;30.50;90.30;;;;;;4973397;28;20179;-26
2023/08/15 09:04:08;;;;;;;1.90;1.17;;;30.80;92.50;;;;;;4957263;28;20174;-25
2023/08/15 09:06:34;;;;;;;3.27;1.70;;;31.10;92.00;;;;;;4968104;28;20029;-25
2023/08/15 09:09:00;;;;;;;3.38;1.60;;;31.40;91.40;;;;;;4967079;28;20033;-25
2023/08/15 09:11:36;;;;;;;1.80;1.40;;;31.60;90.90;;;;;;4949360;28;20079;-25
2023/08/15 09:14:03;;;;;;;1.70;1.25;;;31.90;87.50;;;;;;4965380;28;20809;-24
2023/08/15 09:16:30;;;;;;;3.83;1.65;;;32.10;90.20;;;;;;4967572;28;20025;-24
2023/08/15 09:18:56;;;;;;;2.53;1.80;;;32.30;90.00;;;;;;4943433;28;20525;-24
2023/08/15 09:21:26;;;;;;;2.45;1.50;;;32.50;89.50;;;;;;4984549;28;20030;-24
2023/08/15 09:23:52;;;;;;;2.53;1.77;;;32.70;88.50;;;;;;4967713;28;20029;-25
2023/08/15 09:26:18;;;;;;;2.28;1.50;;;32.90;88.10;;;;;;4948727;28;20022;-24
2023/08/15 09:28:45;;;;;;;2.63;1.67;;;33.10;87.90;;;;;;4944858;28;20062;-25
2023/08/15 09:31:11;;;;;;;1.87;1.40;;;33.30;86.80;;;;;;4974990;28;20037;-24
2023/08/15 09:33:38;;;;;;;1.90;1.50;;;33.60;85.80;;;;;;4964847;28;20026;-24
2023/08/15 09:36:08;;;;;;;3.00;1.88;;;33.80;84.80;;;;;;4974158;28;20650;-24
2023/08/15 09:38:37;;;;;;;2.08;1.40;;;34.10;82.80;;;;;;4965258;28;20991;-24
2023/08/15 09:41:03;;;;;;;1.63;1.52;;;34.30;83.30;;;;;;4964578;28;20506;-25
2023/08/15 09:43:30;;;;;;;3.10;1.70;;;34.40;81.90;;;;;;4950591;28;20627;-24
2023/08/15 09:45:59;;;;;;;2.22;2.00;;;34.60;80.30;;;;;;5024492;23;20085;-24
2023/08/15 09:48:29;;;;;;;3.17;1.80;;;34.70;76.10;;;;;;4975557;28;20037;-23
2023/08/15 09:50:56;;;;;;;2.58;1.70;;;34.70;77.20;;;;;;4983366;28;20049;-22
2023/08/15 09:53:23;;;;;;;4.07;1.95;;;34.80;77.50;;;;;;4979448;28;20048;-23
2023/08/15 09:55:50;;;;;;;1.73;1.47;;;34.90;77.10;;;;;;5005341;28;20029;-22
2023/08/15 10:00:47;;;;;;;2.05;1.63;;;34.90;75.50;;;;;;4941094;28;20305;-24
2023/08/15 10:03:25;;;;;;;2.00;1.55;;;35.00;73.80;;;;;;4925893;28;20392;-25
2023/08/15 10:05:54;;;;;;;1.85;1.63;;;35.00;73.20;;;;;;4946607;28;20042;-22
2023/08/15 10:08:23;;;;;;;3.03;2.10;;;35.30;76.00;;;;;;4932543;28;20031;-23
2023/08/15 10:10:50;;;;;;;2.10;1.80;;;35.50;74.70;;;;;;4929877;28;20715;-23
2023/08/15 10:13:26;;;;;;;2.95;1.55;;;35.80;73.60;;;;;;4915089;28;20482;-23
2023/08/15 10:15:55;;;;;;;3.20;2.00;;;35.80;69.00;;;;;;4922264;28;20051;-23
2023/08/15 10:18:21;;;;;;;2.00;1.65;;;35.70;70.00;;;;;;4938046;28;20328;-23
2023/08/15 10:20:54;;;;;;;2.87;1.60;;;35.60;70.00;;;;;;4926663;28;20125;-25
2023/08/15 10:23:31;;;;;;;2.75;1.42;;;35.50;67.90;;;;;;4912309;28;20142;-24
2023/08/15 10:25:58;;;;;;;3.35;1.48;;;35.30;65.20;;;;;;4917077;28;20530;-24
2023/08/15 10:28:32;;;;;;;2.08;1.55;;;35.10;67.20;;;;;;4919100;28;20208;-24
2023/08/15 10:30:58;;;;;;;2.33;1.50;;;35.00;66.60;;;;;;4926613;28;20038;-24
2023/08/15 10:33:26;;;;;;;2.17;1.70;;;35.00;69.00;;;;;;4943563;28;20035;-24
2023/08/15 10:35:55;;;;;;;2.30;1.58;;;35.00;69.50;;;;;;4919926;28;20030;-24
2023/08/15 10:38:31;;;;;;;2.55;1.55;;;35.20;68.90;;;;;;5011187;23;20078;-24
2023/08/15 10:41:11;;;;;;;2.33;1.50;;;35.50;68.40;;;;;;4962005;28;20026;-24
2023/08/15 10:43:37;;;;;;;2.88;1.70;;;35.80;68.10;;;;;;4957445;28;20049;-24
2023/08/15 10:46:05;;;;;;;3.08;1.40;;;36.00;68.80;;;;;;4950921;28;20042;-24
2023/08/15 10:48:51;;;;;;;2.88;1.50;;;36.10;67.00;;;;;;4960306;28;20078;-25
2023/08/15 10:51:21;;;;;;;2.85;1.63;;;36.10;62.70;;;;;;4929258;28;20052;-24
2023/08/15 10:53:52;;;;;;;3.37;1.57;;;36.10;65.10;;;;;;4971855;28;20573;-25
2023/08/15 10:56:23;;;;;;;2.05;1.48;;;35.90;63.40;;;;;;4914115;28;20052;-24
2023/08/15 10:58:50;;;;;;;1.42;1.15;;;35.80;62.30;;;;;;4960020;28;20391;-24
2023/08/15 11:01:20;;;;;;;2.55;1.20;;;35.50;61.70;;;;;;4940378;28;20023;-25
2023/08/15 11:03:48;;;;;;;2.00;1.13;;;35.20;60.30;;;;;;4953422;28;20046;-24
2023/08/15 11:06:14;;;;;;;3.63;1.30;;;34.90;61.10;;;;;;4969706;28;20157;-24
2023/08/15 11:08:48;;;;;;;2.28;1.40;;;34.60;61.20;;;;;;4944261;28;20061;-24
2023/08/15 11:11:14;;;;;;;2.13;1.20;;;34.30;60.20;;;;;;4964966;28;20026;-24
2023/08/15 11:13:44;;;;;;;2.03;1.35;;;34.10;62.50;;;;;;4939478;28;20051;-24
2023/08/15 11:16:11;;;;;;;1.27;1.13;;;34.10;62.90;;;;;;4938598;28;20700;-24
2023/08/15 11:18:37;;;;;;;2.90;1.50;;;34.20;65.60;;;;;;4932918;28;21868;-24
2023/08/15 11:21:07;;;;;;;2.30;1.63;;;34.50;66.40;;;;;;4971602;28;20775;-24
2023/08/15 11:23:33;;;;;;;2.60;1.50;;;34.80;66.40;;;;;;4921104;28;20034;-24
2023/08/15 11:26:05;;;;;;;1.85;1.48;;;35.10;65.00;;;;;;4964882;28;20041;-24
2023/08/15 11:28:31;;;;;;;1.73;1.10;;;35.20;62.40;;;;;;4955872;28;20073;-25
2023/08/15 11:30:58;;;;;;;1.83;1.15;;;37.40;62.30;;;;;;4953826;28;20030;-25
2023/08/15 11:33:24;;;;;;;2.33;1.63;;;35.20;62.10;;;;;;4960021;28;20031;-23
2023/08/15 11:35:50;;;;;;;2.28;1.25;;;35.40;62.90;;;;;;4967575;28;20030;-23
2023/08/15 11:38:20;;;;;;;1.92;1.50;;;35.50;64.40;;;;;;4985540;28;20078;-23
2023/08/15 11:40:46;;;;;;;2.03;1.40;;;35.80;63.20;;;;;;4958754;28;20026;-23
2023/08/15 11:43:12;;;;;;;2.05;1.40;;;36.10;64.30;;;;;;4961001;28;20605;-24
2023/08/15 11:45:43;;;;;;;1.90;1.73;;;36.30;64.00;;;;;;4990640;28;20121;-23
2023/08/15 11:48:09;;;;;;;2.92;1.60;;;36.70;64.10;;;;;;4948361;28;20092;-24
2023/08/15 11:50:35;;;;;;;2.20;1.65;;;37.10;64.30;;;;;;4978672;28;20025;-23
2023/08/15 11:53:08;;;;;;;2.73;1.93;;;37.50;64.00;;;;;;4968082;28;20034;-24
2023/08/15 11:55:37;;;;;;;2.10;1.80;;;37.90;60.20;;;;;;4959935;28;20041;-23
2023/08/15 11:58:19;;;;;;;2.80;1.90;;;38.10;61.20;;;;;;4952647;28;20030;-24
2023/08/15 12:00:48;;;;;;;1.85;1.63;;;38.30;60.00;;;;;;5035909;23;20506;-23
2023/08/15 12:03:18;;;;;;;2.10;1.70;;;38.40;59.30;;;;;;4990527;28;20188;-23
2023/08/15 12:05:46;;;;;;;2.23;1.50;;;38.50;57.60;;;;;;5025882;23;20129;-23
2023/08/15 12:08:19;;;;;;;2.40;1.88;;;38.50;57.50;;;;;;5024806;28;20028;-24
2023/08/15 12:10:45;;;;;;;2.28;1.67;;;38.50;56.30;;;;;;5016430;28;20032;-24
2023/08/15 12:13:12;;;;;;;2.67;1.65;;;38.50;56.30;;;;;;5018673;28;20055;-24
2023/08/15 12:15:38;;;;;;;2.22;1.80;;;38.50;55.50;;;;;;5057685;28;20033;-24
2023/08/15 19:50:09;;;;;;;2.60;1.20;;;26.70;62.60;;;;;;6103509;22;1505274;-27
2023/08/15 19:52:35;;;;;;;2.33;1.35;;;26.60;62.70;;;;;;6158548;23;20040;-27
2023/08/15 19:55:04;;;;;;;1.80;1.07;;;26.60;62.70;;;;;;6126796;23;20009;-27
2023/08/15 19:57:31;;;;;;;2.70;1.10;;;26.50;62.70;;;;;;6151063;23;21083;-27
2023/08/15 19:59:57;;;;;;;2.83;1.10;;;26.50;63.10;;;;;;6160047;23;20028;-27
2023/08/15 20:02:23;;;;;;;2.65;1.15;;;26.40;63.00;;;;;;6149169;23;20159;-26
2023/08/15 20:04:49;;;;;;;2.17;1.10;;;26.40;63.30;;;;;;6150894;23;20005;-27
2023/08/15 20:07:17;;;;;;;1.20;1.10;;;26.30;63.30;;;;;;6158925;23;20067;-27
2023/08/15 20:09:43;;;;;;;1.70;1.10;;;26.30;63.50;;;;;;6153881;23;20321;-26
2023/08/15 20:12:08;;;;;;;2.42;1.10;;;26.20;63.40;;;;;;6154531;23;20009;-27
2023/08/15 20:14:34;;;;;;;2.23;1.00;;;26.20;63.60;;;;;;6156134;23;20056;-27
2023/08/15 20:17:00;;;;;;;2.30;1.10;;;26.20;63.60;;;;;;6153273;23;20012;-27
2023/08/15 20:19:26;;;;;;;1.93;1.10;;;26.20;63.60;;;;;;6123372;23;20005;-27
2023/08/15 20:21:51;;;;;;;2.10;1.30;;;26.10;63.60;;;;;;6151179;23;20005;-27